sensor_id;sensor_type;location;lat;lon;timestamp;temperature;humidity
2030;DHT22;1020;48.854;8.830;2023-06-14T00:01:52;13.60;99.90
2030;DHT22;1020;48.854;8.830;2023-06-14T00:04:19;13.60;99.90
2030;DHT22;1020;48.854;8.830;2023-06-14T00:06:46;13.60;99.90
2030;DHT22;1020;48.854;8.830;2023-06-14T00:09:14;13.50;99.90
2030;DHT22;1020;48.854;8.830;2023-06-14T00:11:42;13.50;99.90
2030;DHT22;1020;48.854;8.830;2023-06-14T00:14:11;13.50;99.90
2030;DHT22;1020;48.854;8.830;2023-06-14T00:16:38;13.50;99.90
2030;DHT22;1020;48.854;8.830;2023-06-14T00:19:07;13.50;99.90
2030;DHT22;1020;48.854;8.830;2023-06-14T00:21:35;13.50;99.90
2030;DHT22;1020;48.854;8.830;2023-06-14T00:24:04;13.50;99.90
2030;DHT22;1020;48.854;8.830;2023-06-14T00:26:31;13.50;99.90
2030;DHT22;1020;48.854;8.830;2023-06-14T00:28:57;13.40;99.90
2030;DHT22;1020;48.854;8.830;2023-06-14T00:31:26;13.40;99.90
2030;DHT22;1020;48.854;8.830;2023-06-14T00:33:53;13.40;99.90
2030;DHT22;1020;48.854;8.830;2023-06-14T00:36:19;13.30;99.90
2030;DHT22;1020;48.854;8.830;2023-06-14T00:38:46;13.30;99.90
2030;DHT22;1020;48.854;8.830;2023-06-14T00:41:13;13.30;99.90
2030;DHT22;1020;48.854;8.830;2023-06-14T00:43:40;13.30;99.90
2030;DHT22;1020;48.854;8.830;2023-06-14T00:46:06;13.30;99.90
2030;DHT22;1020;48.854;8.830;2023-06-14T00:48:36;13.30;99.90
2030;DHT22;1020;48.854;8.830;2023-06-14T00:51:03;13.20;99.90
2030;DHT22;1020;48.854;8.830;2023-06-14T00:53:31;13.20;99.90
2030;DHT22;1020;48.854;8.830;2023-06-14T00:56:00;13.10;99.90
2030;DHT22;1020;48.854;8.830;2023-06-14T00:58:26;13.10;99.90
2030;DHT22;1020;48.854;8.830;2023-06-14T01:00:54;13.10;99.90
2030;DHT22;1020;48.854;8.830;2023-06-14T01:03:21;13.00;99.90
2030;DHT22;1020;48.854;8.830;2023-06-14T01:05:52;13.00;99.90
2030;DHT22;1020;48.854;8.830;2023-06-14T01:08:28;13.10;99.90
2030;DHT22;1020;48.854;8.830;2023-06-14T01:11:01;13.00;99.90
2030;DHT22;1020;48.854;8.830;2023-06-14T01:13:33;13.00;99.90
2030;DHT22;1020;48.854;8.830;2023-06-14T01:16:01;12.90;99.90
2030;DHT22;1020;48.854;8.830;2023-06-14T01:18:29;12.80;99.90
2030;DHT22;1020;48.854;8.830;2023-06-14T01:20:57;12.70;99.90
2030;DHT22;1020;48.854;8.830;2023-06-14T01:23:25;12.70;99.90
2030;DHT22;1020;48.854;8.830;2023-06-14T01:25:57;12.60;99.90
2030;DHT22;1020;48.854;8.830;2023-06-14T01:28:25;12.70;99.90
2030;DHT22;1020;48.854;8.830;2023-06-14T01:31:00;12.70;99.90
2030;DHT22;1020;48.854;8.830;2023-06-14T01:33:50;12.70;99.90
2030;DHT22;1020;48.854;8.830;2023-06-14T01:36:32;12.70;99.90
2030;DHT22;1020;48.854;8.830;2023-06-14T01:39:00;12.70;99.90
2030;DHT22;1020;48.854;8.830;2023-06-14T01:41:28;12.60;99.90
2030;DHT22;1020;48.854;8.830;2023-06-14T01:43:56;12.70;99.90
2030;DHT22;1020;48.854;8.830;2023-06-14T01:46:25;12.70;99.90
2030;DHT22;1020;48.854;8.830;2023-06-14T01:48:52;12.70;99.90
2030;DHT22;1020;48.854;8.830;2023-06-14T01:51:19;12.70;99.90
2030;DHT22;1020;48.854;8.830;2023-06-14T01:53:45;12.70;99.90
2030;DHT22;1020;48.854;8.830;2023-06-14T01:56:14;12.70;99.90
2030;DHT22;1020;48.854;8.830;2023-06-14T01:58:40;12.70;99.90
2030;DHT22;1020;48.854;8.830;2023-06-14T02:01:07;12.70;99.90
2030;DHT22;1020;48.854;8.830;2023-06-14T02:03:34;12.60;99.90
2030;DHT22;1020;48.854;8.830;2023-06-14T02:06:03;12.60;99.90
2030;DHT22;1020;48.854;8.830;2023-06-14T02:08:30;12.60;99.90
2030;DHT22;1020;48.854;8.830;2023-06-14T02:10:57;12.60;99.90
2030;DHT22;1020;48.854;8.830;2023-06-14T02:13:25;12.60;99.90
2030;DHT22;1020;48.854;8.830;2023-06-14T02:15:51;12.50;99.90
2030;DHT22;1020;48.854;8.830;2023-06-14T02:18:20;12.30;99.90
2030;DHT22;1020;48.854;8.830;2023-06-14T02:20:46;12.30;99.90
2030;DHT22;1020;48.854;8.830;2023-06-14T02:23:13;12.30;99.90
2030;DHT22;1020;48.854;8.830;2023-06-14T02:25:40;12.30;99.90
2030;DHT22;1020;48.854;8.830;2023-06-14T02:28:08;12.30;99.90
2030;DHT22;1020;48.854;8.830;2023-06-14T02:30:36;12.30;99.90
2030;DHT22;1020;48.854;8.830;2023-06-14T02:33:04;12.30;99.90
2030;DHT22;1020;48.854;8.830;2023-06-14T02:35:31;12.30;99.90
2030;DHT22;1020;48.854;8.830;2023-06-14T02:37:57;12.40;99.90
2030;DHT22;1020;48.854;8.830;2023-06-14T02:40:24;12.30;99.90
2030;DHT22;1020;48.854;8.830;2023-06-14T02:42:51;12.30;99.90
2030;DHT22;1020;48.854;8.830;2023-06-14T02:45:18;12.30;99.90
2030;DHT22;1020;48.854;8.830;2023-06-14T02:47:47;12.20;99.90
2030;DHT22;1020;48.854;8.830;2023-06-14T02:50:14;12.20;99.90
2030;DHT22;1020;48.854;8.830;2023-06-14T02:52:41;12.20;99.90
2030;DHT22;1020;48.854;8.830;2023-06-14T02:55:10;12.10;99.90
2030;DHT22;1020;48.854;8.830;2023-06-14T02:57:37;12.10;99.90
2030;DHT22;1020;48.854;8.830;2023-06-14T03:00:05;12.10;99.90
2030;DHT22;1020;48.854;8.830;2023-06-14T03:02:35;12.00;99.90
2030;DHT22;1020;48.854;8.830;2023-06-14T03:05:03;11.90;99.90
2030;DHT22;1020;48.854;8.830;2023-06-14T03:07:32;11.90;99.90
2030;DHT22;1020;48.854;8.830;2023-06-14T03:10:00;10.40;99.90
2030;DHT22;1020;48.854;8.830;2023-06-14T03:12:26;13.80;99.90
2030;DHT22;1020;48.854;8.830;2023-06-14T03:14:53;11.90;99.90
2030;DHT22;1020;48.854;8.830;2023-06-14T03:17:22;11.90;99.90
2030;DHT22;1020;48.854;8.830;2023-06-14T03:19:49;11.90;99.90
2030;DHT22;1020;48.854;8.830;2023-06-14T03:22:18;11.90;99.90
2030;DHT22;1020;48.854;8.830;2023-06-14T03:24:45;11.90;99.90
2030;DHT22;1020;48.854;8.830;2023-06-14T03:27:12;11.90;99.90
2030;DHT22;1020;48.854;8.830;2023-06-14T03:29:39;11.90;99.90
2030;DHT22;1020;48.854;8.830;2023-06-14T03:32:07;11.90;99.90
2030;DHT22;1020;48.854;8.830;2023-06-14T03:34:34;11.80;99.90
2030;DHT22;1020;48.854;8.830;2023-06-14T03:37:00;11.80;99.90
2030;DHT22;1020;48.854;8.830;2023-06-14T03:39:29;11.70;99.90
2030;DHT22;1020;48.854;8.830;2023-06-14T03:41:55;11.70;99.90
2030;DHT22;1020;48.854;8.830;2023-06-14T03:44:23;11.70;99.90
2030;DHT22;1020;48.854;8.830;2023-06-14T03:46:52;11.70;99.90
2030;DHT22;1020;48.854;8.830;2023-06-14T03:49:19;11.70;99.90
2030;DHT22;1020;48.854;8.830;2023-06-14T03:51:46;11.70;99.90
2030;DHT22;1020;48.854;8.830;2023-06-14T03:54:16;11.70;99.90
2030;DHT22;1020;48.854;8.830;2023-06-14T03:56:44;11.70;99.90
2030;DHT22;1020;48.854;8.830;2023-06-14T03:59:12;11.70;99.90
2030;DHT22;1020;48.854;8.830;2023-06-14T04:01:39;11.70;99.90
2030;DHT22;1020;48.854;8.830;2023-06-14T04:04:12;11.70;99.90
2030;DHT22;1020;48.854;8.830;2023-06-14T04:06:38;11.80;99.90
2030;DHT22;1020;48.854;8.830;2023-06-14T04:09:05;11.90;99.90
2030;DHT22;1020;48.854;8.830;2023-06-14T04:11:32;11.90;99.90
2030;DHT22;1020;48.854;8.830;2023-06-14T04:14:01;12.00;99.90
2030;DHT22;1020;48.854;8.830;2023-06-14T04:16:28;12.00;99.90
2030;DHT22;1020;48.854;8.830;2023-06-14T04:18:55;12.10;99.90
2030;DHT22;1020;48.854;8.830;2023-06-14T04:21:23;12.20;99.90
2030;DHT22;1020;48.854;8.830;2023-06-14T04:23:53;12.20;99.90
2030;DHT22;1020;48.854;8.830;2023-06-14T04:26:21;12.30;99.90
2030;DHT22;1020;48.854;8.830;2023-06-14T04:28:49;12.50;99.90
2030;DHT22;1020;48.854;8.830;2023-06-14T04:31:17;12.40;99.90
2030;DHT22;1020;48.854;8.830;2023-06-14T04:33:44;12.40;99.90
2030;DHT22;1020;48.854;8.830;2023-06-14T04:36:12;12.40;99.90
2030;DHT22;1020;48.854;8.830;2023-06-14T04:38:39;12.30;99.90
2030;DHT22;1020;48.854;8.830;2023-06-14T04:41:06;12.40;99.90
2030;DHT22;1020;48.854;8.830;2023-06-14T04:43:37;12.50;99.90
2030;DHT22;1020;48.854;8.830;2023-06-14T04:46:04;12.60;99.90
2030;DHT22;1020;48.854;8.830;2023-06-14T04:48:36;12.70;99.90
2030;DHT22;1020;48.854;8.830;2023-06-14T04:51:05;12.80;99.90
2030;DHT22;1020;48.854;8.830;2023-06-14T04:53:32;13.00;99.90
2030;DHT22;1020;48.854;8.830;2023-06-14T04:56:02;13.10;99.90
2030;DHT22;1020;48.854;8.830;2023-06-14T04:58:29;13.30;99.90
2030;DHT22;1020;48.854;8.830;2023-06-14T05:00:56;13.40;99.90
2030;DHT22;1020;48.854;8.830;2023-06-14T05:03:24;13.60;99.90
2030;DHT22;1020;48.854;8.830;2023-06-14T05:05:53;13.70;99.90
2030;DHT22;1020;48.854;8.830;2023-06-14T05:08:20;13.90;99.90
2030;DHT22;1020;48.854;8.830;2023-06-14T05:10:48;14.00;99.90
2030;DHT22;1020;48.854;8.830;2023-06-14T05:13:15;14.20;99.90
2030;DHT22;1020;48.854;8.830;2023-06-14T05:15:42;14.40;99.90
2030;DHT22;1020;48.854;8.830;2023-06-14T05:18:09;14.50;99.90
2030;DHT22;1020;48.854;8.830;2023-06-14T05:20:36;14.70;99.90
2030;DHT22;1020;48.854;8.830;2023-06-14T05:23:04;14.90;99.90
2030;DHT22;1020;48.854;8.830;2023-06-14T05:25:31;15.00;99.90
2030;DHT22;1020;48.854;8.830;2023-06-14T05:27:58;15.20;99.90
2030;DHT22;1020;48.854;8.830;2023-06-14T05:30:25;15.30;99.90
2030;DHT22;1020;48.854;8.830;2023-06-14T05:32:55;15.40;99.90
2030;DHT22;1020;48.854;8.830;2023-06-14T05:35:21;15.50;99.90
2030;DHT22;1020;48.854;8.830;2023-06-14T05:37:48;15.70;99.90
2030;DHT22;1020;48.854;8.830;2023-06-14T05:40:17;15.70;99.90
2030;DHT22;1020;48.854;8.830;2023-06-14T05:42:43;15.90;99.90
2030;DHT22;1020;48.854;8.830;2023-06-14T05:45:10;15.90;99.90
2030;DHT22;1020;48.854;8.830;2023-06-14T05:47:37;16.00;99.90
2030;DHT22;1020;48.854;8.830;2023-06-14T05:50:04;16.10;99.90
2030;DHT22;1020;48.854;8.830;2023-06-14T05:52:31;16.20;99.90
2030;DHT22;1020;48.854;8.830;2023-06-14T05:54:59;16.30;99.90
2030;DHT22;1020;48.854;8.830;2023-06-14T05:57:27;16.50;99.90
2030;DHT22;1020;48.854;8.830;2023-06-14T05:59:54;16.50;99.90
2030;DHT22;1020;48.854;8.830;2023-06-14T06:02:21;16.60;99.90
2030;DHT22;1020;48.854;8.830;2023-06-14T06:04:47;16.60;99.90
2030;DHT22;1020;48.854;8.830;2023-06-14T06:07:14;16.80;99.90
2030;DHT22;1020;48.854;8.830;2023-06-14T06:09:41;16.90;99.90
2030;DHT22;1020;48.854;8.830;2023-06-14T06:12:08;17.00;99.90
2030;DHT22;1020;48.854;8.830;2023-06-14T06:14:37;17.00;99.90
2030;DHT22;1020;48.854;8.830;2023-06-14T06:17:04;17.20;99.90
2030;DHT22;1020;48.854;8.830;2023-06-14T06:19:32;17.30;99.90
2030;DHT22;1020;48.854;8.830;2023-06-14T06:21:58;17.30;99.90
2030;DHT22;1020;48.854;8.830;2023-06-14T06:24:25;17.40;99.90
2030;DHT22;1020;48.854;8.830;2023-06-14T06:26:52;17.60;99.90
2030;DHT22;1020;48.854;8.830;2023-06-14T06:29:19;17.80;99.90
2030;DHT22;1020;48.854;8.830;2023-06-14T06:31:47;17.90;99.90
2030;DHT22;1020;48.854;8.830;2023-06-14T06:34:14;18.20;99.90
2030;DHT22;1020;48.854;8.830;2023-06-14T06:36:41;18.30;99.90
2030;DHT22;1020;48.854;8.830;2023-06-14T06:39:08;18.50;99.90
2030;DHT22;1020;48.854;8.830;2023-06-14T06:41:36;18.60;99.90
2030;DHT22;1020;48.854;8.830;2023-06-14T06:44:05;18.80;99.90
2030;DHT22;1020;48.854;8.830;2023-06-14T06:46:32;18.60;99.90
2030;DHT22;1020;48.854;8.830;2023-06-14T06:49:00;18.60;99.90
2030;DHT22;1020;48.854;8.830;2023-06-14T06:51:27;18.80;99.90
2030;DHT22;1020;48.854;8.830;2023-06-14T06:53:54;19.10;99.90
2030;DHT22;1020;48.854;8.830;2023-06-14T06:56:21;19.00;99.90
2030;DHT22;1020;48.854;8.830;2023-06-14T06:58:48;19.10;99.90
2030;DHT22;1020;48.854;8.830;2023-06-14T07:01:15;19.30;99.90
2030;DHT22;1020;48.854;8.830;2023-06-14T07:03:42;19.60;99.90
2030;DHT22;1020;48.854;8.830;2023-06-14T07:06:10;19.70;99.90
2030;DHT22;1020;48.854;8.830;2023-06-14T07:08:37;20.10;99.90
2030;DHT22;1020;48.854;8.830;2023-06-14T07:11:04;20.30;99.90
2030;DHT22;1020;48.854;8.830;2023-06-14T07:13:31;20.40;99.90
2030;DHT22;1020;48.854;8.830;2023-06-14T07:15:59;20.50;99.90
2030;DHT22;1020;48.854;8.830;2023-06-14T07:18:26;20.50;99.90
2030;DHT22;1020;48.854;8.830;2023-06-14T07:20:53;20.60;99.90
2030;DHT22;1020;48.854;8.830;2023-06-14T07:23:21;20.50;99.90
2030;DHT22;1020;48.854;8.830;2023-06-14T07:25:48;20.80;99.90
2030;DHT22;1020;48.854;8.830;2023-06-14T07:28:16;21.00;99.90
2030;DHT22;1020;48.854;8.830;2023-06-14T07:30:43;21.60;99.90
2030;DHT22;1020;48.854;8.830;2023-06-14T07:33:10;22.30;99.90
2030;DHT22;1020;48.854;8.830;2023-06-14T07:35:37;23.00;99.90
2030;DHT22;1020;48.854;8.830;2023-06-14T07:38:04;23.80;99.90
2030;DHT22;1020;48.854;8.830;2023-06-14T07:40:32;24.50;99.90
2030;DHT22;1020;48.854;8.830;2023-06-14T07:42:59;25.40;99.90
2030;DHT22;1020;48.854;8.830;2023-06-14T07:45:27;26.00;99.90
2030;DHT22;1020;48.854;8.830;2023-06-14T07:47:54;26.90;99.90
2030;DHT22;1020;48.854;8.830;2023-06-14T07:50:20;28.20;99.90
2030;DHT22;1020;48.854;8.830;2023-06-14T07:52:48;28.80;99.90
2030;DHT22;1020;48.854;8.830;2023-06-14T07:55:14;29.80;99.90
2030;DHT22;1020;48.854;8.830;2023-06-14T07:57:43;30.30;99.90
2030;DHT22;1020;48.854;8.830;2023-06-14T08:00:11;30.10;99.90
2030;DHT22;1020;48.854;8.830;2023-06-14T08:02:41;30.10;99.90
2030;DHT22;1020;48.854;8.830;2023-06-14T08:05:09;30.70;99.90
2030;DHT22;1020;48.854;8.830;2023-06-14T08:07:36;30.90;99.90
2030;DHT22;1020;48.854;8.830;2023-06-14T08:10:03;30.90;99.90
2030;DHT22;1020;48.854;8.830;2023-06-14T08:12:29;31.30;99.90
2030;DHT22;1020;48.854;8.830;2023-06-14T08:14:58;31.20;99.90
2030;DHT22;1020;48.854;8.830;2023-06-14T08:17:24;31.40;99.90
2030;DHT22;1020;48.854;8.830;2023-06-14T08:19:51;32.10;99.90
2030;DHT22;1020;48.854;8.830;2023-06-14T08:22:20;32.30;99.90
2030;DHT22;1020;48.854;8.830;2023-06-14T08:24:47;31.80;99.90
2030;DHT22;1020;48.854;8.830;2023-06-14T08:27:14;31.10;99.90
2030;DHT22;1020;48.854;8.830;2023-06-14T08:29:41;31.70;99.90
2030;DHT22;1020;48.854;8.830;2023-06-14T08:32:10;31.50;99.90
2030;DHT22;1020;48.854;8.830;2023-06-14T08:34:37;31.70;99.90
2030;DHT22;1020;48.854;8.830;2023-06-14T08:37:04;31.90;99.90
2030;DHT22;1020;48.854;8.830;2023-06-14T08:39:32;31.80;99.90
2030;DHT22;1020;48.854;8.830;2023-06-14T08:42:01;31.70;99.90
2030;DHT22;1020;48.854;8.830;2023-06-14T08:44:29;31.80;99.90
2030;DHT22;1020;48.854;8.830;2023-06-14T08:46:56;31.50;99.90
2030;DHT22;1020;48.854;8.830;2023-06-14T08:49:25;31.70;99.90
2030;DHT22;1020;48.854;8.830;2023-06-14T08:51:56;31.80;99.90
2030;DHT22;1020;48.854;8.830;2023-06-14T08:54:25;31.90;99.90
2030;DHT22;1020;48.854;8.830;2023-06-14T08:56:53;31.30;99.90
2030;DHT22;1020;48.854;8.830;2023-06-14T08:59:24;31.50;99.90
2030;DHT22;1020;48.854;8.830;2023-06-14T09:01:52;31.40;99.90
2030;DHT22;1020;48.854;8.830;2023-06-14T09:04:20;31.50;99.90
2030;DHT22;1020;48.854;8.830;2023-06-14T09:06:48;32.00;99.90
2030;DHT22;1020;48.854;8.830;2023-06-14T09:09:18;32.20;99.90
2030;DHT22;1020;48.854;8.830;2023-06-14T09:11:46;31.40;99.90
2030;DHT22;1020;48.854;8.830;2023-06-14T09:14:13;31.60;99.90
2030;DHT22;1020;48.854;8.830;2023-06-14T09:16:39;31.30;99.90
2030;DHT22;1020;48.854;8.830;2023-06-14T09:19:06;31.50;99.90
2030;DHT22;1020;48.854;8.830;2023-06-14T09:21:34;31.70;99.90
2030;DHT22;1020;48.854;8.830;2023-06-14T09:24:03;30.30;99.90
2030;DHT22;1020;48.854;8.830;2023-06-14T09:26:31;28.90;99.90
2030;DHT22;1020;48.854;8.830;2023-06-14T09:28:58;28.70;99.90
2030;DHT22;1020;48.854;8.830;2023-06-14T09:31:25;29.20;99.90
2030;DHT22;1020;48.854;8.830;2023-06-14T09:33:55;29.80;99.90
2030;DHT22;1020;48.854;8.830;2023-06-14T09:36:23;29.00;99.90
2030;DHT22;1020;48.854;8.830;2023-06-14T09:38:55;29.20;99.90
2030;DHT22;1020;48.854;8.830;2023-06-14T09:41:31;29.70;99.90
2030;DHT22;1020;48.854;8.830;2023-06-14T09:43:58;30.60;99.90
2030;DHT22;1020;48.854;8.830;2023-06-14T09:46:28;30.90;99.90
2030;DHT22;1020;48.854;8.830;2023-06-14T09:48:55;31.20;99.90
2030;DHT22;1020;48.854;8.830;2023-06-14T09:51:23;32.10;99.90
2030;DHT22;1020;48.854;8.830;2023-06-14T09:53:50;33.00;99.90
2030;DHT22;1020;48.854;8.830;2023-06-14T09:56:23;32.90;99.90
2030;DHT22;1020;48.854;8.830;2023-06-14T09:58:55;32.70;99.90
2030;DHT22;1020;48.854;8.830;2023-06-14T10:01:23;33.30;99.90
2030;DHT22;1020;48.854;8.830;2023-06-14T10:03:54;34.00;99.90
2030;DHT22;1020;48.854;8.830;2023-06-14T10:06:22;34.30;99.90
2030;DHT22;1020;48.854;8.830;2023-06-14T10:08:52;34.70;99.90
2030;DHT22;1020;48.854;8.830;2023-06-14T10:11:23;33.50;99.90
2030;DHT22;1020;48.854;8.830;2023-06-14T10:13:50;33.10;99.90
2030;DHT22;1020;48.854;8.830;2023-06-14T10:16:23;32.90;99.90
2030;DHT22;1020;48.854;8.830;2023-06-14T10:18:59;33.50;99.90
2030;DHT22;1020;48.854;8.830;2023-06-14T10:21:33;34.10;99.90
2030;DHT22;1020;48.854;8.830;2023-06-14T10:24:07;34.60;99.90
2030;DHT22;1020;48.854;8.830;2023-06-14T10:26:50;34.60;99.90
2030;DHT22;1020;48.854;8.830;2023-06-14T10:29:17;35.10;99.90
2030;DHT22;1020;48.854;8.830;2023-06-14T10:31:47;34.60;99.90
2030;DHT22;1020;48.854;8.830;2023-06-14T10:34:21;34.10;99.90
2030;DHT22;1020;48.854;8.830;2023-06-14T10:37:01;33.80;99.90
2030;DHT22;1020;48.854;8.830;2023-06-14T10:39:28;33.80;99.90
2030;DHT22;1020;48.854;8.830;2023-06-14T10:41:56;33.00;99.90
2030;DHT22;1020;48.854;8.830;2023-06-14T10:47:25;32.70;99.90
2030;DHT22;1020;48.854;8.830;2023-06-14T10:49:55;33.10;99.90
2030;DHT22;1020;48.854;8.830;2023-06-14T10:52:24;33.00;99.90
2030;DHT22;1020;48.854;8.830;2023-06-14T10:55:06;32.40;99.90
2030;DHT22;1020;48.854;8.830;2023-06-14T10:57:37;31.70;99.90
2030;DHT22;1020;48.854;8.830;2023-06-14T11:00:05;31.70;99.90
2030;DHT22;1020;48.854;8.830;2023-06-14T11:05:49;32.60;99.90
2030;DHT22;1020;48.854;8.830;2023-06-14T11:08:30;33.00;99.90
2030;DHT22;1020;48.854;8.830;2023-06-14T11:11:05;33.70;99.90
2030;DHT22;1020;48.854;8.830;2023-06-14T11:13:32;33.90;99.90
2030;DHT22;1020;48.854;8.830;2023-06-14T11:15:59;34.20;99.90
2030;DHT22;1020;48.854;8.830;2023-06-14T11:18:26;34.30;99.90
2030;DHT22;1020;48.854;8.830;2023-06-14T11:20:56;32.80;99.90
2030;DHT22;1020;48.854;8.830;2023-06-14T11:23:23;33.40;99.90
2030;DHT22;1020;48.854;8.830;2023-06-14T11:25:50;34.30;99.90
2030;DHT22;1020;48.854;8.830;2023-06-14T11:28:17;34.00;99.90
2030;DHT22;1020;48.854;8.830;2023-06-14T11:30:45;34.00;99.90
2030;DHT22;1020;48.854;8.830;2023-06-14T11:33:16;34.70;99.90
2030;DHT22;1020;48.854;8.830;2023-06-14T11:35:44;34.80;99.90
2030;DHT22;1020;48.854;8.830;2023-06-14T11:38:12;33.50;99.90
2030;DHT22;1020;48.854;8.830;2023-06-14T11:40:39;34.30;99.90
2030;DHT22;1020;48.854;8.830;2023-06-14T11:43:06;35.10;99.90
2030;DHT22;1020;48.854;8.830;2023-06-14T11:45:33;36.30;99.90
2030;DHT22;1020;48.854;8.830;2023-06-14T11:48:00;36.80;99.90
2030;DHT22;1020;48.854;8.830;2023-06-14T11:50:28;35.90;99.90
2030;DHT22;1020;48.854;8.830;2023-06-14T11:52:57;35.10;99.90
2030;DHT22;1020;48.854;8.830;2023-06-14T11:55:26;35.60;99.90
2030;DHT22;1020;48.854;8.830;2023-06-14T11:57:54;35.70;99.90
2030;DHT22;1020;48.854;8.830;2023-06-14T12:00:24;36.10;99.90
2030;DHT22;1020;48.854;8.830;2023-06-14T12:02:55;36.30;99.90
2030;DHT22;1020;48.854;8.830;2023-06-14T12:05:23;35.90;99.90
2030;DHT22;1020;48.854;8.830;2023-06-14T12:07:51;36.30;99.90
2030;DHT22;1020;48.854;8.830;2023-06-14T12:10:27;36.30;99.90
2030;DHT22;1020;48.854;8.830;2023-06-14T12:12:57;36.00;99.90
2030;DHT22;1020;48.854;8.830;2023-06-14T12:15:28;35.80;99.90
2030;DHT22;1020;48.854;8.830;2023-06-14T12:17:55;36.50;99.90
2030;DHT22;1020;48.854;8.830;2023-06-14T12:20:22;36.90;99.90
2030;DHT22;1020;48.854;8.830;2023-06-14T12:22:52;35.20;99.50
2030;DHT22;1020;48.854;8.830;2023-06-14T12:25:28;35.10;99.90
2030;DHT22;1020;48.854;8.830;2023-06-14T12:27:57;34.30;97.40
2030;DHT22;1020;48.854;8.830;2023-06-14T12:30:24;34.60;98.90
2030;DHT22;1020;48.854;8.830;2023-06-14T12:32:50;35.30;99.90
2030;DHT22;1020;48.854;8.830;2023-06-14T12:35:17;35.70;99.90
2030;DHT22;1020;48.854;8.830;2023-06-14T12:37:45;35.40;99.90
2030;DHT22;1020;48.854;8.830;2023-06-14T12:40:12;35.30;99.90
2030;DHT22;1020;48.854;8.830;2023-06-14T12:42:40;35.50;99.90
2030;DHT22;1020;48.854;8.830;2023-06-14T12:45:08;35.40;99.50
2030;DHT22;1020;48.854;8.830;2023-06-14T12:47:36;34.60;97.80
2030;DHT22;1020;48.854;8.830;2023-06-14T12:50:03;34.00;96.10
2030;DHT22;1020;48.854;8.830;2023-06-14T12:52:30;33.90;96.60
2030;DHT22;1020;48.854;8.830;2023-06-14T12:54:57;35.20;99.90
2030;DHT22;1020;48.854;8.830;2023-06-14T12:57:24;34.70;99.90
2030;DHT22;1020;48.854;8.830;2023-06-14T12:59:52;35.00;98.40
2030;DHT22;1020;48.854;8.830;2023-06-14T13:02:20;35.50;99.90
2030;DHT22;1020;48.854;8.830;2023-06-14T13:04:47;35.40;99.30
2030;DHT22;1020;48.854;8.830;2023-06-14T13:07:14;34.90;97.50
2030;DHT22;1020;48.854;8.830;2023-06-14T13:09:41;34.30;96.30
2030;DHT22;1020;48.854;8.830;2023-06-14T13:12:10;34.40;97.30
2030;DHT22;1020;48.854;8.830;2023-06-14T13:14:38;34.40;97.00
2030;DHT22;1020;48.854;8.830;2023-06-14T13:17:08;34.20;96.40
2030;DHT22;1020;48.854;8.830;2023-06-14T13:19:35;36.30;98.50
2030;DHT22;1020;48.854;8.830;2023-06-14T13:24:30;34.40;97.40
2030;DHT22;1020;48.854;8.830;2023-06-14T13:26:57;34.10;96.10
2030;DHT22;1020;48.854;8.830;2023-06-14T13:29:24;33.90;96.00
2030;DHT22;1020;48.854;8.830;2023-06-14T13:31:52;33.90;96.90
2030;DHT22;1020;48.854;8.830;2023-06-14T13:34:20;34.20;97.10
2030;DHT22;1020;48.854;8.830;2023-06-14T13:36:48;34.60;97.90
2030;DHT22;1020;48.854;8.830;2023-06-14T13:39:15;34.10;96.50
2030;DHT22;1020;48.854;8.830;2023-06-14T13:41:42;34.20;96.30
2030;DHT22;1020;48.854;8.830;2023-06-14T13:44:09;34.30;97.10
2030;DHT22;1020;48.854;8.830;2023-06-14T13:46:36;34.70;97.90
2030;DHT22;1020;48.854;8.830;2023-06-14T13:49:03;33.60;97.80
2030;DHT22;1020;48.854;8.830;2023-06-14T13:51:32;34.50;95.80
2030;DHT22;1020;48.854;8.830;2023-06-14T13:54:00;32.80;96.40
2030;DHT22;1020;48.854;8.830;2023-06-14T13:56:27;34.00;96.40
2030;DHT22;1020;48.854;8.830;2023-06-14T13:58:55;32.40;95.60
2030;DHT22;1020;48.854;8.830;2023-06-14T14:01:22;34.40;90.90
2030;DHT22;1020;48.854;8.830;2023-06-14T14:03:49;34.40;96.30
2030;DHT22;1020;48.854;8.830;2023-06-14T14:06:16;33.90;94.70
2030;DHT22;1020;48.854;8.830;2023-06-14T14:08:44;33.90;94.70
2030;DHT22;1020;48.854;8.830;2023-06-14T14:11:11;33.90;95.10
2030;DHT22;1020;48.854;8.830;2023-06-14T14:13:38;34.20;95.50
2030;DHT22;1020;48.854;8.830;2023-06-14T14:16:05;34.50;95.90
2030;DHT22;1020;48.854;8.830;2023-06-14T14:18:32;33.70;94.30
2030;DHT22;1020;48.854;8.830;2023-06-14T14:20:59;32.80;91.50
2030;DHT22;1020;48.854;8.830;2023-06-14T14:23:27;32.50;91.90
2030;DHT22;1020;48.854;8.830;2023-06-14T14:25:56;32.60;93.10
2030;DHT22;1020;48.854;8.830;2023-06-14T14:28:22;32.40;91.70
2030;DHT22;1020;48.854;8.830;2023-06-14T14:30:49;32.50;93.20
2030;DHT22;1020;48.854;8.830;2023-06-14T14:33:16;32.40;93.00
2030;DHT22;1020;48.854;8.830;2023-06-14T14:35:43;31.70;91.80
2030;DHT22;1020;48.854;8.830;2023-06-14T14:38:11;31.70;92.00
2030;DHT22;1020;48.854;8.830;2023-06-14T14:40:38;31.90;92.90
2030;DHT22;1020;48.854;8.830;2023-06-14T14:43:06;32.30;94.20
2030;DHT22;1020;48.854;8.830;2023-06-14T14:45:33;32.50;94.60
2030;DHT22;1020;48.854;8.830;2023-06-14T14:48:00;32.90;96.20
2030;DHT22;1020;48.854;8.830;2023-06-14T14:50:27;31.20;94.10
2030;DHT22;1020;48.854;8.830;2023-06-14T14:52:54;32.90;95.80
2030;DHT22;1020;48.854;8.830;2023-06-14T14:55:21;33.20;96.60
2030;DHT22;1020;48.854;8.830;2023-06-14T14:57:48;33.40;94.10
2030;DHT22;1020;48.854;8.830;2023-06-14T15:00:17;31.80;93.20
2030;DHT22;1020;48.854;8.830;2023-06-14T15:02:44;31.20;91.60
2030;DHT22;1020;48.854;8.830;2023-06-14T15:05:10;30.80;90.80
2030;DHT22;1020;48.854;8.830;2023-06-14T15:07:37;30.90;92.90
2030;DHT22;1020;48.854;8.830;2023-06-14T15:10:07;31.30;94.50
2030;DHT22;1020;48.854;8.830;2023-06-14T15:12:34;34.10;96.50
2030;DHT22;1020;48.854;8.830;2023-06-14T15:15:01;31.60;94.60
2030;DHT22;1020;48.854;8.830;2023-06-14T15:17:30;31.30;93.70
2030;DHT22;1020;48.854;8.830;2023-06-14T15:19:56;30.80;93.90
2030;DHT22;1020;48.854;8.830;2023-06-14T15:22:23;30.80;94.80
2030;DHT22;1020;48.854;8.830;2023-06-14T15:24:50;31.00;95.90
2030;DHT22;1020;48.854;8.830;2023-06-14T15:27:17;31.20;96.70
2030;DHT22;1020;48.854;8.830;2023-06-14T15:29:44;31.10;96.30
2030;DHT22;1020;48.854;8.830;2023-06-14T15:32:11;31.20;97.10
2030;DHT22;1020;48.854;8.830;2023-06-14T15:34:39;32.00;97.40
2030;DHT22;1020;48.854;8.830;2023-06-14T15:37:06;31.20;96.50
2030;DHT22;1020;48.854;8.830;2023-06-14T15:39:33;30.80;90.60
2030;DHT22;1020;48.854;8.830;2023-06-14T15:42:00;30.80;96.80
2030;DHT22;1020;48.854;8.830;2023-06-14T15:44:27;30.00;96.00
2030;DHT22;1020;48.854;8.830;2023-06-14T15:46:54;29.90;95.10
2030;DHT22;1020;48.854;8.830;2023-06-14T15:49:31;29.70;95.80
2030;DHT22;1020;48.854;8.830;2023-06-14T15:52:07;29.80;96.60
2030;DHT22;1020;48.854;8.830;2023-06-14T15:54:44;29.90;97.10
2030;DHT22;1020;48.854;8.830;2023-06-14T15:57:11;30.00;97.30
2030;DHT22;1020;48.854;8.830;2023-06-14T15:59:37;29.60;96.60
2030;DHT22;1020;48.854;8.830;2023-06-14T16:02:05;29.20;95.70
2030;DHT22;1020;48.854;8.830;2023-06-14T16:04:32;29.30;97.30
2030;DHT22;1020;48.854;8.830;2023-06-14T16:06:59;30.40;96.60
2030;DHT22;1020;48.854;8.830;2023-06-14T16:09:27;28.80;96.50
2030;DHT22;1020;48.854;8.830;2023-06-14T16:11:54;29.10;97.80
2030;DHT22;1020;48.854;8.830;2023-06-14T16:14:22;29.10;97.80
2030;DHT22;1020;48.854;8.830;2023-06-14T16:16:49;29.10;97.90